sensor_id;sensor_type;location;lat;lon;timestamp;P1;durP1;ratioP1;P2;durP2;ratioP2
7330;SDS011;3706;49.198;7.064;2023-05-07T00:02:09;4.50;;;2.80;;
7330;SDS011;3706;49.198;7.064;2023-05-07T00:04:35;2.50;;;2.30;;
7330;SDS011;3706;49.198;7.064;2023-05-07T00:07:04;3.67;;;2.77;;
7330;SDS011;3706;49.198;7.064;2023-05-07T00:09:31;6.20;;;2.90;;
7330;SDS011;3706;49.198;7.064;2023-05-07T00:11:58;2.90;;;2.50;;
7330;SDS011;3706;49.198;7.064;2023-05-07T00:14:26;4.90;;;2.97;;
7330;SDS011;3706;49.198;7.064;2023-05-07T00:16:53;3.67;;;2.90;;
7330;SDS011;3706;49.198;7.064;2023-05-07T00:19:21;6.87;;;2.97;;
7330;SDS011;3706;49.198;7.064;2023-05-07T00:21:48;3.00;;;2.70;;
7330;SDS011;3706;49.198;7.064;2023-05-07T00:24:15;5.40;;;2.57;;
7330;SDS011;3706;49.198;7.064;2023-05-07T00:26:42;4.17;;;2.90;;
7330;SDS011;3706;49.198;7.064;2023-05-07T00:29:09;7.37;;;2.57;;
7330;SDS011;3706;49.198;7.064;2023-05-07T00:31:37;3.30;;;2.70;;
7330;SDS011;3706;49.198;7.064;2023-05-07T00:34:07;4.77;;;3.30;;
7330;SDS011;3706;49.198;7.064;2023-05-07T00:36:34;4.63;;;3.20;;
7330;SDS011;3706;49.198;7.064;2023-05-07T00:39:00;3.30;;;2.60;;
7330;SDS011;3706;49.198;7.064;2023-05-07T00:41:28;5.77;;;2.67;;
7330;SDS011;3706;49.198;7.064;2023-05-07T00:43:55;3.90;;;3.10;;
7330;SDS011;3706;49.198;7.064;2023-05-07T00:46:22;4.47;;;2.50;;
7330;SDS011;3706;49.198;7.064;2023-05-07T00:48:52;3.20;;;2.73;;
7330;SDS011;3706;49.198;7.064;2023-05-07T00:51:20;3.67;;;2.90;;
7330;SDS011;3706;49.198;7.064;2023-05-07T00:53:47;4.13;;;2.80;;
7330;SDS011;3706;49.198;7.064;2023-05-07T00:56:15;6.67;;;2.73;;
7330;SDS011;3706;49.198;7.064;2023-05-07T00:58:42;3.60;;;2.77;;
7330;SDS011;3706;49.198;7.064;2023-05-07T01:01:10;5.20;;;2.90;;
7330;SDS011;3706;49.198;7.064;2023-05-07T01:03:37;5.13;;;3.17;;
7330;SDS011;3706;49.198;7.064;2023-05-07T01:06:05;4.70;;;2.83;;
7330;SDS011;3706;49.198;7.064;2023-05-07T01:08:35;3.03;;;2.73;;
7330;SDS011;3706;49.198;7.064;2023-05-07T01:11:04;3.33;;;2.40;;
7330;SDS011;3706;49.198;7.064;2023-05-07T01:13:32;2.87;;;2.40;;
7330;SDS011;3706;49.198;7.064;2023-05-07T01:16:00;5.60;;;2.97;;
7330;SDS011;3706;49.198;7.064;2023-05-07T01:18:27;4.07;;;3.17;;
7330;SDS011;3706;49.198;7.064;2023-05-07T01:20:55;4.00;;;3.30;;
7330;SDS011;3706;49.198;7.064;2023-05-07T01:23:25;5.50;;;2.70;;
7330;SDS011;3706;49.198;7.064;2023-05-07T01:25:54;4.93;;;2.63;;
7330;SDS011;3706;49.198;7.064;2023-05-07T01:28:21;2.97;;;2.67;;
7330;SDS011;3706;49.198;7.064;2023-05-07T01:30:49;6.30;;;2.90;;
7330;SDS011;3706;49.198;7.064;2023-05-07T01:33:20;3.17;;;2.70;;
7330;SDS011;3706;49.198;7.064;2023-05-07T01:35:48;6.33;;;3.07;;
7330;SDS011;3706;49.198;7.064;2023-05-07T01:38:18;3.03;;;2.50;;
7330;SDS011;3706;49.198;7.064;2023-05-07T01:40:50;4.43;;;2.73;;
7330;SDS011;3706;49.198;7.064;2023-05-07T01:43:17;5.53;;;3.00;;
7330;SDS011;3706;49.198;7.064;2023-05-07T01:45:44;2.80;;;2.57;;
7330;SDS011;3706;49.198;7.064;2023-05-07T01:48:14;4.20;;;3.10;;
7330;SDS011;3706;49.198;7.064;2023-05-07T01:50:43;4.30;;;2.63;;
7330;SDS011;3706;49.198;7.064;2023-05-07T01:53:11;4.23;;;2.60;;
7330;SDS011;3706;49.198;7.064;2023-05-07T01:55:41;3.40;;;2.80;;
7330;SDS011;3706;49.198;7.064;2023-05-07T01:58:10;7.00;;;2.93;;
7330;SDS011;3706;49.198;7.064;2023-05-07T02:00:39;4.23;;;2.97;;
7330;SDS011;3706;49.198;7.064;2023-05-07T02:03:06;10.17;;;2.97;;
7330;SDS011;3706;49.198;7.064;2023-05-07T02:05:33;3.73;;;3.13;;
7330;SDS011;3706;49.198;7.064;2023-05-07T02:08:00;3.97;;;2.80;;
7330;SDS011;3706;49.198;7.064;2023-05-07T02:10:27;4.53;;;2.83;;
7330;SDS011;3706;49.198;7.064;2023-05-07T02:12:54;5.53;;;3.00;;
7330;SDS011;3706;49.198;7.064;2023-05-07T02:15:23;5.33;;;2.70;;
7330;SDS011;3706;49.198;7.064;2023-05-07T02:17:59;3.43;;;2.73;;
7330;SDS011;3706;49.198;7.064;2023-05-07T02:20:28;4.87;;;3.00;;
7330;SDS011;3706;49.198;7.064;2023-05-07T02:22:55;3.50;;;3.00;;
7330;SDS011;3706;49.198;7.064;2023-05-07T02:25:22;3.10;;;2.80;;
7330;SDS011;3706;49.198;7.064;2023-05-07T02:27:49;5.40;;;2.97;;
7330;SDS011;3706;49.198;7.064;2023-05-07T02:30:16;3.80;;;2.47;;
7330;SDS011;3706;49.198;7.064;2023-05-07T02:32:47;4.07;;;3.40;;
7330;SDS011;3706;49.198;7.064;2023-05-07T02:35:14;4.17;;;2.70;;
7330;SDS011;3706;49.198;7.064;2023-05-07T02:37:41;4.23;;;3.03;;
7330;SDS011;3706;49.198;7.064;2023-05-07T02:40:09;2.90;;;2.60;;
7330;SDS011;3706;49.198;7.064;2023-05-07T02:42:37;2.90;;;2.60;;
7330;SDS011;3706;49.198;7.064;2023-05-07T02:45:04;9.47;;;3.73;;
7330;SDS011;3706;49.198;7.064;2023-05-07T02:47:32;3.20;;;2.60;;
7330;SDS011;3706;49.198;7.064;2023-05-07T02:50:00;6.07;;;2.80;;
7330;SDS011;3706;49.198;7.064;2023-05-07T02:52:27;3.83;;;3.00;;
7330;SDS011;3706;49.198;7.064;2023-05-07T02:54:54;4.43;;;2.83;;
7330;SDS011;3706;49.198;7.064;2023-05-07T02:57:20;4.60;;;2.80;;
7330;SDS011;3706;49.198;7.064;2023-05-07T02:59:47;6.00;;;3.07;;
7330;SDS011;3706;49.198;7.064;2023-05-07T03:02:14;4.20;;;3.07;;
7330;SDS011;3706;49.198;7.064;2023-05-07T03:04:41;4.57;;;2.80;;
7330;SDS011;3706;49.198;7.064;2023-05-07T03:07:09;3.57;;;2.93;;
7330;SDS011;3706;49.198;7.064;2023-05-07T03:09:36;3.90;;;2.83;;
7330;SDS011;3706;49.198;7.064;2023-05-07T03:12:03;4.93;;;2.90;;
7330;SDS011;3706;49.198;7.064;2023-05-07T03:14:30;3.87;;;2.93;;
7330;SDS011;3706;49.198;7.064;2023-05-07T03:16:57;4.20;;;2.77;;
7330;SDS011;3706;49.198;7.064;2023-05-07T03:19:24;3.90;;;2.70;;
7330;SDS011;3706;49.198;7.064;2023-05-07T03:21:51;3.00;;;2.47;;
7330;SDS011;3706;49.198;7.064;2023-05-07T03:24:19;4.97;;;3.20;;
7330;SDS011;3706;49.198;7.064;2023-05-07T03:26:46;3.17;;;2.70;;
7330;SDS011;3706;49.198;7.064;2023-05-07T03:29:13;3.50;;;3.13;;
7330;SDS011;3706;49.198;7.064;2023-05-07T03:31:40;3.63;;;2.97;;
7330;SDS011;3706;49.198;7.064;2023-05-07T03:34:07;4.63;;;2.93;;
7330;SDS011;3706;49.198;7.064;2023-05-07T03:36:34;3.63;;;2.60;;
7330;SDS011;3706;49.198;7.064;2023-05-07T03:39:01;4.13;;;3.00;;
7330;SDS011;3706;49.198;7.064;2023-05-07T03:41:29;3.70;;;2.77;;
7330;SDS011;3706;49.198;7.064;2023-05-07T03:43:56;4.70;;;2.87;;
7330;SDS011;3706;49.198;7.064;2023-05-07T03:46:23;3.70;;;2.80;;
7330;SDS011;3706;49.198;7.064;2023-05-07T03:48:51;3.67;;;3.30;;
7330;SDS011;3706;49.198;7.064;2023-05-07T03:51:18;3.70;;;2.90;;
7330;SDS011;3706;49.198;7.064;2023-05-07T03:53:45;3.70;;;3.30;;
7330;SDS011;3706;49.198;7.064;2023-05-07T03:56:12;6.97;;;2.90;;
7330;SDS011;3706;49.198;7.064;2023-05-07T03:58:40;5.37;;;3.23;;
7330;SDS011;3706;49.198;7.064;2023-05-07T04:01:07;3.13;;;2.83;;
7330;SDS011;3706;49.198;7.064;2023-05-07T04:03:34;3.33;;;2.80;;
7330;SDS011;3706;49.198;7.064;2023-05-07T04:06:01;4.37;;;3.00;;
7330;SDS011;3706;49.198;7.064;2023-05-07T04:08:28;3.07;;;2.77;;
7330;SDS011;3706;49.198;7.064;2023-05-07T04:10:58;3.50;;;2.67;;
7330;SDS011;3706;49.198;7.064;2023-05-07T04:13:25;6.67;;;3.30;;
7330;SDS011;3706;49.198;7.064;2023-05-07T04:15:54;5.80;;;2.80;;
7330;SDS011;3706;49.198;7.064;2023-05-07T04:18:21;5.93;;;3.00;;
7330;SDS011;3706;49.198;7.064;2023-05-07T04:20:48;5.40;;;3.03;;
7330;SDS011;3706;49.198;7.064;2023-05-07T04:23:15;3.63;;;2.90;;
7330;SDS011;3706;49.198;7.064;2023-05-07T04:25:42;6.47;;;2.93;;
7330;SDS011;3706;49.198;7.064;2023-05-07T04:28:10;4.37;;;2.83;;
7330;SDS011;3706;49.198;7.064;2023-05-07T04:30:37;4.80;;;2.83;;
7330;SDS011;3706;49.198;7.064;2023-05-07T04:33:05;5.83;;;2.83;;
7330;SDS011;3706;49.198;7.064;2023-05-07T04:35:32;3.97;;;2.93;;
7330;SDS011;3706;49.198;7.064;2023-05-07T04:37:59;3.43;;;3.10;;
7330;SDS011;3706;49.198;7.064;2023-05-07T04:40:26;3.90;;;3.20;;
7330;SDS011;3706;49.198;7.064;2023-05-07T04:42:53;3.80;;;2.73;;
7330;SDS011;3706;49.198;7.064;2023-05-07T04:45:20;3.93;;;2.93;;
7330;SDS011;3706;49.198;7.064;2023-05-07T04:47:47;3.93;;;3.20;;
7330;SDS011;3706;49.198;7.064;2023-05-07T04:50:16;3.73;;;2.80;;
7330;SDS011;3706;49.198;7.064;2023-05-07T04:52:44;4.67;;;2.77;;
7330;SDS011;3706;49.198;7.064;2023-05-07T04:55:11;4.60;;;3.20;;
7330;SDS011;3706;49.198;7.064;2023-05-07T04:57:38;3.23;;;2.93;;
7330;SDS011;3706;49.198;7.064;2023-05-07T05:00:06;6.47;;;3.00;;
7330;SDS011;3706;49.198;7.064;2023-05-07T05:02:35;3.37;;;3.07;;
7330;SDS011;3706;49.198;7.064;2023-05-07T05:05:02;4.63;;;3.43;;
7330;SDS011;3706;49.198;7.064;2023-05-07T05:07:30;4.40;;;3.37;;
7330;SDS011;3706;49.198;7.064;2023-05-07T05:09:57;3.77;;;3.20;;
7330;SDS011;3706;49.198;7.064;2023-05-07T05:12:24;4.77;;;2.97;;
7330;SDS011;3706;49.198;7.064;2023-05-07T05:14:51;4.83;;;3.30;;
7330;SDS011;3706;49.198;7.064;2023-05-07T05:17:18;10.47;;;5.13;;
7330;SDS011;3706;49.198;7.064;2023-05-07T05:19:45;5.00;;;3.20;;
7330;SDS011;3706;49.198;7.064;2023-05-07T05:22:12;3.83;;;3.20;;
7330;SDS011;3706;49.198;7.064;2023-05-07T05:24:40;8.70;;;3.43;;
7330;SDS011;3706;49.198;7.064;2023-05-07T05:27:07;3.30;;;3.00;;
7330;SDS011;3706;49.198;7.064;2023-05-07T05:29:34;3.40;;;3.10;;
7330;SDS011;3706;49.198;7.064;2023-05-07T05:32:01;3.87;;;2.80;;
7330;SDS011;3706;49.198;7.064;2023-05-07T05:34:28;4.00;;;3.10;;
7330;SDS011;3706;49.198;7.064;2023-05-07T05:36:55;3.60;;;2.90;;
7330;SDS011;3706;49.198;7.064;2023-05-07T05:39:22;5.30;;;2.90;;
7330;SDS011;3706;49.198;7.064;2023-05-07T05:41:51;3.17;;;2.50;;
7330;SDS011;3706;49.198;7.064;2023-05-07T05:44:18;4.30;;;2.90;;
7330;SDS011;3706;49.198;7.064;2023-05-07T05:47:02;4.77;;;2.70;;
7330;SDS011;3706;49.198;7.064;2023-05-07T05:50:01;4.00;;;2.63;;
7330;SDS011;3706;49.198;7.064;2023-05-07T05:52:37;5.73;;;2.93;;
7330;SDS011;3706;49.198;7.064;2023-05-07T05:56:11;5.07;;;2.73;;
7330;SDS011;3706;49.198;7.064;2023-05-07T06:05:33;3.03;;;2.00;;
7330;SDS011;3706;49.198;7.064;2023-05-07T06:08:12;6.00;;;2.50;;
7330;SDS011;3706;49.198;7.064;2023-05-07T06:10:39;7.10;;;2.67;;
7330;SDS011;3706;49.198;7.064;2023-05-07T06:13:06;2.40;;;2.20;;
7330;SDS011;3706;49.198;7.064;2023-05-07T06:15:33;3.47;;;2.27;;
7330;SDS011;3706;49.198;7.064;2023-05-07T06:18:00;3.63;;;2.40;;
7330;SDS011;3706;49.198;7.064;2023-05-07T06:20:27;6.90;;;2.80;;
7330;SDS011;3706;49.198;7.064;2023-05-07T06:22:56;3.63;;;2.30;;
7330;SDS011;3706;49.198;7.064;2023-05-07T06:25:23;3.83;;;2.77;;
7330;SDS011;3706;49.198;7.064;2023-05-07T06:27:50;4.03;;;2.30;;
7330;SDS011;3706;49.198;7.064;2023-05-07T06:30:16;3.70;;;2.63;;
7330;SDS011;3706;49.198;7.064;2023-05-07T06:32:43;2.77;;;2.47;;
7330;SDS011;3706;49.198;7.064;2023-05-07T06:35:10;3.40;;;2.50;;
7330;SDS011;3706;49.198;7.064;2023-05-07T06:37:37;2.97;;;2.50;;
7330;SDS011;3706;49.198;7.064;2023-05-07T06:40:22;4.03;;;2.30;;
7330;SDS011;3706;49.198;7.064;2023-05-07T06:43:34;4.50;;;2.80;;
7330;SDS011;3706;49.198;7.064;2023-05-07T06:46:01;4.13;;;2.43;;
7330;SDS011;3706;49.198;7.064;2023-05-07T06:48:28;2.60;;;2.00;;
7330;SDS011;3706;49.198;7.064;2023-05-07T06:50:55;3.40;;;2.37;;
7330;SDS011;3706;49.198;7.064;2023-05-07T06:53:22;3.30;;;2.30;;
7330;SDS011;3706;49.198;7.064;2023-05-07T06:55:51;3.27;;;2.20;;
7330;SDS011;3706;49.198;7.064;2023-05-07T06:58:18;4.23;;;2.30;;
7330;SDS011;3706;49.198;7.064;2023-05-07T07:00:45;4.40;;;2.40;;
7330;SDS011;3706;49.198;7.064;2023-05-07T07:03:11;3.53;;;2.20;;
7330;SDS011;3706;49.198;7.064;2023-05-07T07:05:40;3.70;;;2.47;;
7330;SDS011;3706;49.198;7.064;2023-05-07T07:08:06;3.30;;;1.97;;
7330;SDS011;3706;49.198;7.064;2023-05-07T07:10:33;3.07;;;2.20;;
7330;SDS011;3706;49.198;7.064;2023-05-07T07:13:02;3.17;;;2.10;;
7330;SDS011;3706;49.198;7.064;2023-05-07T07:15:29;2.07;;;1.80;;
7330;SDS011;3706;49.198;7.064;2023-05-07T07:17:55;2.80;;;2.10;;
7330;SDS011;3706;49.198;7.064;2023-05-07T07:20:22;4.37;;;1.90;;
7330;SDS011;3706;49.198;7.064;2023-05-07T07:22:49;4.17;;;2.13;;
7330;SDS011;3706;49.198;7.064;2023-05-07T07:25:16;9.27;;;2.13;;
7330;SDS011;3706;49.198;7.064;2023-05-07T07:27:43;3.67;;;2.20;;
7330;SDS011;3706;49.198;7.064;2023-05-07T07:30:12;2.23;;;1.90;;
7330;SDS011;3706;49.198;7.064;2023-05-07T07:32:39;2.20;;;1.90;;
7330;SDS011;3706;49.198;7.064;2023-05-07T07:35:06;3.17;;;1.73;;
7330;SDS011;3706;49.198;7.064;2023-05-07T07:37:33;1.93;;;1.80;;
7330;SDS011;3706;49.198;7.064;2023-05-07T07:40:00;3.97;;;1.80;;
7330;SDS011;3706;49.198;7.064;2023-05-07T07:42:28;2.57;;;1.90;;
7330;SDS011;3706;49.198;7.064;2023-05-07T07:44:55;2.70;;;2.07;;
7330;SDS011;3706;49.198;7.064;2023-05-07T07:47:24;3.00;;;2.20;;
7330;SDS011;3706;49.198;7.064;2023-05-07T07:49:51;3.97;;;2.07;;
7330;SDS011;3706;49.198;7.064;2023-05-07T07:52:18;2.80;;;2.17;;
7330;SDS011;3706;49.198;7.064;2023-05-07T07:54:45;3.17;;;2.20;;
7330;SDS011;3706;49.198;7.064;2023-05-07T07:57:12;4.30;;;2.20;;
7330;SDS011;3706;49.198;7.064;2023-05-07T07:59:39;2.67;;;2.10;;
7330;SDS011;3706;49.198;7.064;2023-05-07T08:02:08;3.03;;;2.10;;
7330;SDS011;3706;49.198;7.064;2023-05-07T08:04:36;3.43;;;2.03;;
7330;SDS011;3706;49.198;7.064;2023-05-07T08:07:04;1.80;;;1.70;;
7330;SDS011;3706;49.198;7.064;2023-05-07T08:09:32;2.73;;;1.73;;
7330;SDS011;3706;49.198;7.064;2023-05-07T08:12:03;2.60;;;1.83;;
7330;SDS011;3706;49.198;7.064;2023-05-07T08:14:33;2.07;;;1.87;;
7330;SDS011;3706;49.198;7.064;2023-05-07T08:17:01;7.23;;;1.93;;
7330;SDS011;3706;49.198;7.064;2023-05-07T08:19:28;4.47;;;2.20;;
7330;SDS011;3706;49.198;7.064;2023-05-07T08:21:56;2.37;;;1.80;;
7330;SDS011;3706;49.198;7.064;2023-05-07T08:24:23;2.80;;;1.90;;
7330;SDS011;3706;49.198;7.064;2023-05-07T08:26:50;2.50;;;1.80;;
7330;SDS011;3706;49.198;7.064;2023-05-07T08:29:17;3.40;;;2.10;;
7330;SDS011;3706;49.198;7.064;2023-05-07T08:31:44;3.67;;;2.10;;
7330;SDS011;3706;49.198;7.064;2023-05-07T08:34:11;5.00;;;1.73;;
7330;SDS011;3706;49.198;7.064;2023-05-07T08:36:38;3.07;;;2.20;;
7330;SDS011;3706;49.198;7.064;2023-05-07T08:39:08;2.67;;;1.90;;
7330;SDS011;3706;49.198;7.064;2023-05-07T08:41:35;2.47;;;2.10;;
7330;SDS011;3706;49.198;7.064;2023-05-07T08:44:02;2.83;;;2.00;;
7330;SDS011;3706;49.198;7.064;2023-05-07T08:46:32;3.13;;;1.87;;
7330;SDS011;3706;49.198;7.064;2023-05-07T08:49:00;3.55;;;1.80;;
7330;SDS011;3706;49.198;7.064;2023-05-07T08:51:27;2.83;;;1.90;;
7330;SDS011;3706;49.198;7.064;2023-05-07T08:53:54;4.57;;;2.13;;
7330;SDS011;3706;49.198;7.064;2023-05-07T08:56:22;3.92;;;1.83;;
7330;SDS011;3706;49.198;7.064;2023-05-07T08:58:50;3.92;;;2.17;;
7330;SDS011;3706;49.198;7.064;2023-05-07T09:01:21;3.95;;;1.90;;
7330;SDS011;3706;49.198;7.064;2023-05-07T09:03:54;2.53;;;2.00;;
7330;SDS011;3706;49.198;7.064;2023-05-07T09:06:21;3.67;;;2.00;;
7330;SDS011;3706;49.198;7.064;2023-05-07T09:08:51;4.35;;;2.08;;
7330;SDS011;3706;49.198;7.064;2023-05-07T09:11:20;4.30;;;2.20;;
7330;SDS011;3706;49.198;7.064;2023-05-07T09:13:49;2.17;;;1.90;;
7330;SDS011;3706;49.198;7.064;2023-05-07T09:16:20;3.65;;;2.08;;
7330;SDS011;3706;49.198;7.064;2023-05-07T09:18:50;2.47;;;1.83;;
7330;SDS011;3706;49.198;7.064;2023-05-07T09:21:18;2.73;;;2.33;;
7330;SDS011;3706;49.198;7.064;2023-05-07T09:23:47;2.37;;;2.07;;
7330;SDS011;3706;49.198;7.064;2023-05-07T09:26:14;2.27;;;1.80;;
7330;SDS011;3706;49.198;7.064;2023-05-07T09:28:41;2.73;;;1.93;;
7330;SDS011;3706;49.198;7.064;2023-05-07T09:31:10;3.33;;;2.10;;
7330;SDS011;3706;49.198;7.064;2023-05-07T09:33:38;5.13;;;2.07;;
7330;SDS011;3706;49.198;7.064;2023-05-07T09:36:06;4.18;;;2.15;;
7330;SDS011;3706;49.198;7.064;2023-05-07T09:38:35;2.88;;;2.20;;
7330;SDS011;3706;49.198;7.064;2023-05-07T09:41:03;4.28;;;1.98;;
7330;SDS011;3706;49.198;7.064;2023-05-07T09:43:31;2.13;;;1.92;;
7330;SDS011;3706;49.198;7.064;2023-05-07T09:46:00;2.65;;;2.00;;
7330;SDS011;3706;49.198;7.064;2023-05-07T09:48:31;3.50;;;2.03;;
7330;SDS011;3706;49.198;7.064;2023-05-07T09:51:01;2.80;;;1.90;;
7330;SDS011;3706;49.198;7.064;2023-05-07T09:53:33;2.22;;;2.03;;
7330;SDS011;3706;49.198;7.064;2023-05-07T09:56:00;2.47;;;2.17;;
7330;SDS011;3706;49.198;7.064;2023-05-07T09:58:28;2.63;;;1.98;;
7330;SDS011;3706;49.198;7.064;2023-05-07T10:00:57;3.28;;;1.80;;
7330;SDS011;3706;49.198;7.064;2023-05-07T10:03:24;2.80;;;1.92;;
7330;SDS011;3706;49.198;7.064;2023-05-07T10:05:55;2.08;;;1.90;;
7330;SDS011;3706;49.198;7.064;2023-05-07T10:08:24;1.70;;;1.58;;
7330;SDS011;3706;49.198;7.064;2023-05-07T10:10:52;3.55;;;1.90;;
7330;SDS011;3706;49.198;7.064;2023-05-07T10:13:19;2.08;;;1.90;;
7330;SDS011;3706;49.198;7.064;2023-05-07T10:15:47;3.67;;;2.03;;
7330;SDS011;3706;49.198;7.064;2023-05-07T10:18:15;2.33;;;1.80;;
7330;SDS011;3706;49.198;7.064;2023-05-07T10:20:42;2.25;;;1.67;;
7330;SDS011;3706;49.198;7.064;2023-05-07T10:23:14;1.92;;;1.58;;
7330;SDS011;3706;49.198;7.064;2023-05-07T10:25:45;2.50;;;2.00;;
7330;SDS011;3706;49.198;7.064;2023-05-07T10:28:12;2.83;;;1.77;;
7330;SDS011;3706;49.198;7.064;2023-05-07T10:30:44;2.15;;;1.60;;
7330;SDS011;3706;49.198;7.064;2023-05-07T10:33:23;3.78;;;2.13;;
7330;SDS011;3706;49.198;7.064;2023-05-07T10:35:52;3.20;;;1.73;;
7330;SDS011;3706;49.198;7.064;2023-05-07T10:38:25;2.50;;;1.88;;
7330;SDS011;3706;49.198;7.064;2023-05-07T10:40:53;1.90;;;1.70;;
7330;SDS011;3706;49.198;7.064;2023-05-07T10:43:20;2.08;;;1.70;;
7330;SDS011;3706;49.198;7.064;2023-05-07T10:51:36;3.25;;;1.70;;
7330;SDS011;3706;49.198;7.064;2023-05-07T10:54:23;2.90;;;1.90;;
7330;SDS011;3706;49.198;7.064;2023-05-07T10:56:50;3.05;;;1.65;;
7330;SDS011;3706;49.198;7.064;2023-05-07T11:02:05;2.28;;;1.70;;
7330;SDS011;3706;49.198;7.064;2023-05-07T11:04:34;2.55;;;1.70;;
7330;SDS011;3706;49.198;7.064;2023-05-07T11:07:18;1.98;;;1.77;;
7330;SDS011;3706;49.198;7.064;2023-05-07T11:09:59;2.57;;;1.73;;
7330;SDS011;3706;49.198;7.064;2023-05-07T11:12:49;3.50;;;1.70;;
7330;SDS011;3706;49.198;7.064;2023-05-07T11:15:33;3.77;;;1.60;;
7330;SDS011;3706;49.198;7.064;2023-05-07T11:18:02;2.50;;;1.90;;
7330;SDS011;3706;49.198;7.064;2023-05-07T11:20:45;3.83;;;2.37;;
7330;SDS011;3706;49.198;7.064;2023-05-07T11:26:26;2.73;;;1.90;;
7330;SDS011;3706;49.198;7.064;2023-05-07T11:28:55;3.23;;;1.87;;
7330;SDS011;3706;49.198;7.064;2023-05-07T11:31:23;1.97;;;1.80;;
7330;SDS011;3706;49.198;7.064;2023-05-07T11:33:52;2.80;;;2.23;;
7330;SDS011;3706;49.198;7.064;2023-05-07T11:36:21;2.63;;;1.80;;
7330;SDS011;3706;49.198;7.064;2023-05-07T11:38:49;3.23;;;1.70;;
7330;SDS011;3706;49.198;7.064;2023-05-07T11:41:16;4.17;;;2.10;;
7330;SDS011;3706;49.198;7.064;2023-05-07T11:43:55;2.27;;;2.07;;
7330;SDS011;3706;49.198;7.064;2023-05-07T11:46:23;2.50;;;1.90;;
7330;SDS011;3706;49.198;7.064;2023-05-07T11:48:50;2.60;;;2.10;;
7330;SDS011;3706;49.198;7.064;2023-05-07T11:51:20;2.73;;;2.23;;
7330;SDS011;3706;49.198;7.064;2023-05-07T11:53:49;2.17;;;1.97;;
7330;SDS011;3706;49.198;7.064;2023-05-07T11:56:17;2.10;;;1.90;;
7330;SDS011;3706;49.198;7.064;2023-05-07T11:58:45;2.90;;;2.07;;
7330;SDS011;3706;49.198;7.064;2023-05-07T12:01:14;5.67;;;2.60;;
7330;SDS011;3706;49.198;7.064;2023-05-07T12:03:44;2.20;;;2.00;;
7330;SDS011;3706;49.198;7.064;2023-05-07T12:06:12;2.37;;;2.07;;
7330;SDS011;3706;49.198;7.064;2023-05-07T12:08:41;3.37;;;2.27;;
7330;SDS011;3706;49.198;7.064;2023-05-07T12:11:09;3.77;;;2.40;;
7330;SDS011;3706;49.198;7.064;2023-05-07T12:13:38;8.57;;;2.47;;
7330;SDS011;3706;49.198;7.064;2023-05-07T12:16:06;2.73;;;2.10;;
7330;SDS011;3706;49.198;7.064;2023-05-07T12:18:35;4.67;;;3.03;;
7330;SDS011;3706;49.198;7.064;2023-05-07T12:21:03;2.83;;;2.40;;
7330;SDS011;3706;49.198;7.064;2023-05-07T12:23:33;3.50;;;2.53;;
7330;SDS011;3706;49.198;7.064;2023-05-07T12:26:01;2.50;;;2.20;;
7330;SDS011;3706;49.198;7.064;2023-05-07T12:28:28;2.67;;;2.33;;
7330;SDS011;3706;49.198;7.064;2023-05-07T12:30:55;2.47;;;2.27;;
7330;SDS011;3706;49.198;7.064;2023-05-07T12:33:24;4.23;;;2.27;;
7330;SDS011;3706;49.198;7.064;2023-05-07T12:35:54;3.47;;;2.30;;
7330;SDS011;3706;49.198;7.064;2023-05-07T12:38:22;3.90;;;2.50;;
7330;SDS011;3706;49.198;7.064;2023-05-07T12:40:50;3.50;;;2.77;;
7330;SDS011;3706;49.198;7.064;2023-05-07T12:43:20;6.27;;;3.10;;
7330;SDS011;3706;49.198;7.064;2023-05-07T12:45:50;3.20;;;2.87;;
7330;SDS011;3706;49.198;7.064;2023-05-07T12:48:20;4.60;;;3.10;;
7330;SDS011;3706;49.198;7.064;2023-05-07T12:50:48;5.77;;;3.50;;
7330;SDS011;3706;49.198;7.064;2023-05-07T12:53:19;4.00;;;3.60;;
7330;SDS011;3706;49.198;7.064;2023-05-07T12:55:48;4.40;;;3.33;;
7330;SDS011;3706;49.198;7.064;2023-05-07T12:58:16;3.83;;;3.43;;
7330;SDS011;3706;49.198;7.064;2023-05-07T13:00:43;4.23;;;3.50;;
7330;SDS011;3706;49.198;7.064;2023-05-07T13:03:16;4.93;;;3.47;;
7330;SDS011;3706;49.198;7.064;2023-05-07T13:05:48;5.37;;;3.83;;
7330;SDS011;3706;49.198;7.064;2023-05-07T13:08:24;3.40;;;3.10;;
7330;SDS011;3706;49.198;7.064;2023-05-07T13:10:52;4.53;;;3.47;;
7330;SDS011;3706;49.198;7.064;2023-05-07T13:13:19;4.50;;;3.80;;
7330;SDS011;3706;49.198;7.064;2023-05-07T13:15:46;4.63;;;3.80;;
7330;SDS011;3706;49.198;7.064;2023-05-07T13:18:13;6.67;;;4.00;;
7330;SDS011;3706;49.198;7.064;2023-05-07T13:20:40;4.13;;;3.40;;
7330;SDS011;3706;49.198;7.064;2023-05-07T13:23:07;4.40;;;3.70;;
7330;SDS011;3706;49.198;7.064;2023-05-07T13:25:35;4.00;;;3.60;;
7330;SDS011;3706;49.198;7.064;2023-05-07T13:28:02;4.57;;;3.40;;
7330;SDS011;3706;49.198;7.064;2023-05-07T13:30:30;4.07;;;3.60;;
7330;SDS011;3706;49.198;7.064;2023-05-07T13:32:57;4.17;;;3.77;;
7330;SDS011;3706;49.198;7.064;2023-05-07T13:35:26;6.03;;;3.50;;
7330;SDS011;3706;49.198;7.064;2023-05-07T13:37:53;4.10;;;3.70;;
7330;SDS011;3706;49.198;7.064;2023-05-07T13:40:21;4.57;;;3.30;;
7330;SDS011;3706;49.198;7.064;2023-05-07T13:42:49;3.40;;;3.10;;
7330;SDS011;3706;49.198;7.064;2023-05-07T13:45:17;3.63;;;3.30;;
7330;SDS011;3706;49.198;7.064;2023-05-07T13:47:44;4.97;;;3.63;;
7330;SDS011;3706;49.198;7.064;2023-05-07T13:50:14;6.60;;;3.73;;
7330;SDS011;3706;49.198;7.064;2023-05-07T13:52:41;3.60;;;2.97;;
7330;SDS011;3706;49.198;7.064;2023-05-07T13:55:15;4.40;;;3.10;;
7330;SDS011;3706;49.198;7.064;2023-05-07T13:57:42;4.53;;;2.77;;
7330;SDS011;3706;49.198;7.064;2023-05-07T14:00:11;5.90;;;3.17;;
7330;SDS011;3706;49.198;7.064;2023-05-07T14:02:39;4.03;;;3.40;;
7330;SDS011;3706;49.198;7.064;2023-05-07T14:05:06;5.87;;;5.10;;
7330;SDS011;3706;49.198;7.064;2023-05-07T14:07:34;3.30;;;2.97;;
7330;SDS011;3706;49.198;7.064;2023-05-07T14:10:01;3.53;;;3.23;;
7330;SDS011;3706;49.198;7.064;2023-05-07T14:12:28;4.00;;;3.30;;
7330;SDS011;3706;49.198;7.064;2023-05-07T14:14:55;3.53;;;3.23;;
7330;SDS011;3706;49.198;7.064;2023-05-07T14:17:23;3.80;;;3.40;;
7330;SDS011;3706;49.198;7.064;2023-05-07T14:19:52;4.13;;;3.70;;
7330;SDS011;3706;49.198;7.064;2023-05-07T14:22:19;5.07;;;3.50;;
7330;SDS011;3706;49.198;7.064;2023-05-07T14:24:47;4.47;;;3.10;;
7330;SDS011;3706;49.198;7.064;2023-05-07T14:27:14;3.50;;;3.00;;
7330;SDS011;3706;49.198;7.064;2023-05-07T14:29:41;6.40;;;5.77;;
7330;SDS011;3706;49.198;7.064;2023-05-07T14:32:10;4.00;;;3.30;;
7330;SDS011;3706;49.198;7.064;2023-05-07T14:34:38;4.90;;;4.40;;
7330;SDS011;3706;49.198;7.064;2023-05-07T14:37:05;3.20;;;2.80;;
7330;SDS011;3706;49.198;7.064;2023-05-07T14:39:32;3.17;;;2.87;;
7330;SDS011;3706;49.198;7.064;2023-05-07T14:41:59;3.20;;;2.80;;
7330;SDS011;3706;49.198;7.064;2023-05-07T14:44:26;4.90;;;2.70;;
7330;SDS011;3706;49.198;7.064;2023-05-07T14:46:53;4.13;;;2.87;;
7330;SDS011;3706;49.198;7.064;2023-05-07T14:49:20;3.77;;;2.90;;
7330;SDS011;3706;49.198;7.064;2023-05-07T14:51:48;4.10;;;2.70;;
7330;SDS011;3706;49.198;7.064;2023-05-07T14:54:15;3.37;;;2.50;;
7330;SDS011;3706;49.198;7.064;2023-05-07T14:56:42;4.07;;;2.40;;
7330;SDS011;3706;49.198;7.064;2023-05-07T14:59:09;2.90;;;2.40;;
7330;SDS011;3706;49.198;7.064;2023-05-07T15:01:36;2.90;;;2.60;;
7330;SDS011;3706;49.198;7.064;2023-05-07T15:04:05;2.40;;;2.20;;
7330;SDS011;3706;49.198;7.064;2023-05-07T15:06:32;4.67;;;2.30;;
7330;SDS011;3706;49.198;7.064;2023-05-07T15:09:00;3.67;;;2.43;;
7330;SDS011;3706;49.198;7.064;2023-05-07T15:11:28;3.50;;;2.67;;
7330;SDS011;3706;49.198;7.064;2023-05-07T15:13:55;3.37;;;2.80;;
7330;SDS011;3706;49.198;7.064;2023-05-07T15:16:21;4.77;;;2.87;;
7330;SDS011;3706;49.198;7.064;2023-05-07T15:18:48;3.53;;;2.80;;
7330;SDS011;3706;49.198;7.064;2023-05-07T15:21:15;2.83;;;2.50;;
7330;SDS011;3706;49.198;7.064;2023-05-07T15:23:42;4.33;;;3.03;;
7330;SDS011;3706;49.198;7.064;2023-05-07T15:26:11;3.93;;;2.83;;
7330;SDS011;3706;49.198;7.064;2023-05-07T15:28:38;3.53;;;3.00;;
7330;SDS011;3706;49.198;7.064;2023-05-07T15:31:05;3.57;;;2.97;;
7330;SDS011;3706;49.198;7.064;2023-05-07T15:33:32;6.27;;;3.03;;
7330;SDS011;3706;49.198;7.064;2023-05-07T15:35:59;4.10;;;2.80;;
7330;SDS011;3706;49.198;7.064;2023-05-07T15:38:28;4.33;;;2.70;;
7330;SDS011;3706;49.198;7.064;2023-05-07T15:40:56;3.70;;;2.60;;
7330;SDS011;3706;49.198;7.064;2023-05-07T15:43:24;2.67;;;2.47;;